createdAt,value
2019-01-26T00:00:43.146Z,100280.58
2019-01-26T00:03:11.551Z,100279.94
2019-01-26T00:05:39.787Z,100280.95
2019-01-26T00:08:08.034Z,100270.73
2019-01-26T00:10:36.252Z,100271.92
2019-01-26T00:13:04.468Z,100265.13
2019-01-26T00:15:32.745Z,100255.39
2019-01-26T00:18:00.930Z,100257.46
2019-01-26T00:20:29.168Z,100268.34
2019-01-26T00:22:57.423Z,100261.55
2019-01-26T00:25:25.636Z,100259.47
2019-01-26T00:27:53.849Z,100257.46
2019-01-26T00:30:22.097Z,100264.63
2019-01-26T00:32:50.334Z,100255.77
2019-01-26T00:35:18.541Z,100258.82
2019-01-26T00:37:46.746Z,100258.82
2019-01-26T00:40:14.989Z,100249.30
2019-01-26T00:42:43.198Z,100246.58
2019-01-26T00:45:12.981Z,100247.76
2019-01-26T00:47:41.202Z,100241.45
2019-01-26T00:50:11.728Z,100239.38
2019-01-26T00:52:39.980Z,100238.73
2019-01-26T00:55:09.127Z,100236.33
2019-01-26T00:57:37.370Z,100236.17
2019-01-26T01:00:08.844Z,100237.19
2019-01-26T01:02:37.093Z,100241.92
2019-01-26T01:05:07.543Z,100239.38
2019-01-26T01:07:35.755Z,100241.77
2019-01-26T01:10:09.468Z,100240.56
2019-01-26T01:12:37.693Z,100237.84
2019-01-26T01:15:08.955Z,100233.94
2019-01-26T01:17:37.163Z,100225.60
2019-01-26T01:20:08.240Z,100222.23
2019-01-26T01:22:36.486Z,100225.27
2019-01-26T01:25:06.553Z,100224.95
2019-01-26T01:27:34.757Z,100217.99
2019-01-26T01:30:03.263Z,100230.02
2019-01-26T01:32:31.464Z,100232.25
2019-01-26T01:34:59.701Z,100225.11
2019-01-26T01:37:27.898Z,100219.67
2019-01-26T01:39:56.136Z,100218.95
2019-01-26T01:42:24.367Z,100218.62
2019-01-26T01:44:52.574Z,100215.06
2019-01-26T01:47:20.826Z,100218.62
2019-01-26T01:49:49.038Z,100213.02
2019-01-26T01:52:17.242Z,100210.95
2019-01-26T01:54:45.473Z,100218.47
2019-01-26T01:57:13.700Z,100215.22
2019-01-26T01:59:41.916Z,100218.31
2019-01-26T02:02:10.146Z,100211.98
2019-01-26T02:04:38.371Z,100213.02
2019-01-26T02:07:06.596Z,100207.59
2019-01-26T02:09:34.832Z,100199.21
2019-01-26T02:12:03.031Z,100193.77
2019-01-26T02:14:31.260Z,100195.81
2019-01-26T02:16:59.483Z,100188.49
2019-01-26T02:19:27.722Z,100192.23
2019-01-26T02:21:55.928Z,100190.53
2019-01-26T02:24:24.138Z,100184.41
2019-01-26T02:26:52.375Z,100174.40
2019-01-26T02:29:20.588Z,100166.06
2019-01-26T02:31:48.822Z,100174.55
2019-01-26T02:34:17.022Z,100167.91
2019-01-26T02:36:45.261Z,100167.73
2019-01-26T02:39:13.491Z,100168.56
2019-01-26T02:41:41.700Z,100170.63
2019-01-26T02:44:09.937Z,100163.84
2019-01-26T02:46:38.164Z,100166.39
2019-01-26T02:49:06.386Z,100167.91
2019-01-26T02:51:34.595Z,100159.58
2019-01-26T02:54:02.792Z,100169.27
2019-01-26T02:56:31.012Z,100167.58
2019-01-26T02:58:59.215Z,100165.84
2019-01-26T03:01:27.451Z,100162.42
2019-01-26T03:03:55.675Z,100149.53
2019-01-26T03:06:23.878Z,100156.98
2019-01-26T03:08:52.104Z,100156.98
2019-01-26T03:11:20.329Z,100156.98
2019-01-26T03:13:48.556Z,100156.61
2019-01-26T03:16:16.792Z,100147.95
2019-01-26T03:18:44.986Z,100133.16
2019-01-26T03:21:13.178Z,100130.06
2019-01-26T03:23:41.568Z,100128.37
2019-01-26T03:26:09.801Z,100116.47
2019-01-26T03:28:38.929Z,100113.75
2019-01-26T03:31:07.127Z,100112.92
2019-01-26T03:33:35.352Z,100111.03
2019-01-26T03:36:03.551Z,100116.14
2019-01-26T03:38:31.793Z,100111.41
2019-01-26T03:40:59.986Z,100111.03
2019-01-26T03:43:28.207Z,100098.95
2019-01-26T03:45:56.429Z,100094.72
2019-01-26T03:48:24.652Z,100091.66
2019-01-26T03:50:52.860Z,100094.72
2019-01-26T03:53:21.077Z,100097.42
2019-01-26T03:55:49.325Z,100097.76
2019-01-26T03:58:17.539Z,100103.88
2019-01-26T04:00:45.751Z,100108.61
2019-01-26T04:03:13.971Z,100095.56
2019-01-26T04:05:42.196Z,100107.27
2019-01-26T04:08:10.437Z,100111.02
2019-01-26T04:10:38.661Z,100098.94
2019-01-26T04:13:06.865Z,100107.96
2019-01-26T04:15:35.260Z,100097.42
2019-01-26T04:18:03.474Z,100110.15
2019-01-26T04:20:31.667Z,100111.52
2019-01-26T04:22:59.907Z,100101.66
2019-01-26T04:25:28.099Z,100114.07
2019-01-26T04:27:56.315Z,100113.89
2019-01-26T04:30:24.511Z,100120.20
2019-01-26T04:32:52.750Z,100114.23
2019-01-26T04:35:20.934Z,100110.31
2019-01-26T04:37:49.175Z,100094.70
2019-01-26T04:40:18.302Z,100093.66
2019-01-26T04:42:46.518Z,100105.03
2019-01-26T04:45:17.294Z,100104.87
2019-01-26T04:47:45.521Z,100105.89
2019-01-26T04:50:15.567Z,100109.64
2019-01-26T04:52:43.797Z,100104.20
2019-01-26T04:55:12.011Z,100102.84
2019-01-26T04:57:40.228Z,100098.08
2019-01-26T05:00:19.995Z,100091.96
2019-01-26T05:02:48.196Z,100093.66
2019-01-26T05:05:16.401Z,100091.28
2019-01-26T05:07:44.633Z,100081.73
2019-01-26T05:10:18.014Z,100079.88
2019-01-26T05:12:46.681Z,100086.86
2019-01-26T05:15:15.742Z,100089.24
2019-01-26T05:17:44.005Z,100083.98
2019-01-26T05:20:15.498Z,100095.56
2019-01-26T05:22:43.767Z,100098.77
2019-01-26T05:25:12.011Z,100092.62
2019-01-26T05:27:40.235Z,100100.45
2019-01-26T05:30:14.416Z,100099.09
2019-01-26T05:32:42.645Z,100090.61
2019-01-26T05:35:10.840Z,100083.44
2019-01-26T05:37:39.081Z,100090.23
2019-01-26T05:40:10.679Z,100093.81
2019-01-26T05:42:38.893Z,100090.44
2019-01-26T05:45:10.204Z,100098.23
2019-01-26T05:47:38.408Z,100090.08
2019-01-26T05:50:09.848Z,100086.52
2019-01-26T05:52:38.092Z,100085.16
2019-01-26T05:55:08.259Z,100085.16
2019-01-26T05:57:36.478Z,100089.56
2019-01-26T06:00:20.895Z,100098.77
2019-01-26T06:02:49.114Z,100096.53
2019-01-26T06:05:17.467Z,100095.67
2019-01-26T06:07:45.688Z,100098.77
2019-01-26T06:10:13.879Z,100109.64
2019-01-26T06:12:42.096Z,100105.01
2019-01-26T06:15:11.846Z,100107.23
2019-01-26T06:17:40.054Z,100107.39
2019-01-26T06:20:13.745Z,100102.78
2019-01-26T06:22:41.993Z,100100.45
2019-01-26T06:25:18.828Z,100105.24
2019-01-26T06:27:47.236Z,100111.56
2019-01-26T06:30:25.158Z,100104.22
2019-01-26T06:32:53.367Z,100107.96
2019-01-26T06:35:21.614Z,100101.27
2019-01-26T06:37:49.812Z,100108.77
2019-01-26T06:40:19.290Z,100100.14
2019-01-26T06:42:47.486Z,100092.64
2019-01-26T06:45:17.824Z,100097.03
2019-01-26T06:47:46.057Z,100100.12
2019-01-26T06:50:18.600Z,100109.27
2019-01-26T06:52:46.836Z,100107.91
2019-01-26T06:55:15.050Z,100110.28
2019-01-26T06:57:43.289Z,100106.05
2019-01-26T07:00:16.696Z,100110.63
2019-01-26T07:02:44.897Z,100113.01
2019-01-26T07:05:17.637Z,100114.37
2019-01-26T07:07:45.868Z,100108.75
2019-01-26T07:10:14.077Z,100109.11
2019-01-26T07:12:42.283Z,100105.89
2019-01-26T07:15:11.808Z,100099.41
2019-01-26T07:17:40.020Z,100098.77
2019-01-26T07:20:13.748Z,100087.36
2019-01-26T07:22:41.969Z,100087.52
2019-01-26T07:25:10.459Z,100090.94
2019-01-26T07:27:38.670Z,100094.70
2019-01-26T07:30:10.150Z,100098.94
2019-01-26T07:32:38.376Z,100103.52
2019-01-26T07:35:07.324Z,100108.12
2019-01-26T07:37:35.569Z,100108.77
2019-01-26T07:40:06.176Z,100116.77
2019-01-26T07:42:34.394Z,100119.33
2019-01-26T07:45:02.599Z,100111.16
2019-01-26T07:47:30.984Z,100110.12
2019-01-26T07:49:59.176Z,100095.49
2019-01-26T07:52:27.403Z,100096.70
2019-01-26T07:54:55.600Z,100101.64
2019-01-26T07:57:23.836Z,100095.00
2019-01-26T07:59:52.054Z,100096.85
2019-01-26T08:02:20.293Z,100099.91
2019-01-26T08:04:48.550Z,100084.77
2019-01-26T08:07:16.773Z,100091.91
2019-01-26T08:09:44.984Z,100095.16
2019-01-26T08:12:13.203Z,100089.35
2019-01-26T08:14:41.428Z,100075.59
2019-01-26T08:17:09.651Z,100076.94
2019-01-26T08:19:37.854Z,100076.12
2019-01-26T08:22:06.090Z,100066.61
2019-01-26T08:24:34.341Z,100060.63
2019-01-26T08:27:02.516Z,100062.16
2019-01-26T08:29:30.732Z,100056.39
2019-01-26T08:31:58.942Z,100058.41
2019-01-26T08:34:27.156Z,100044.81
2019-01-26T08:36:55.387Z,100044.31
2019-01-26T08:39:23.573Z,100043.78
2019-01-26T08:41:51.811Z,100049.23
2019-01-26T08:44:20.149Z,100059.28
2019-01-26T08:46:48.351Z,100068.47
2019-01-26T08:49:16.551Z,100073.20
2019-01-26T08:51:44.767Z,100077.33
2019-01-26T08:54:12.956Z,100072.23
2019-01-26T08:56:41.199Z,100068.47
2019-01-26T08:59:09.407Z,100065.09
2019-01-26T09:01:37.637Z,100063.42
2019-01-26T09:04:07.500Z,100055.75
2019-01-26T09:06:35.697Z,100053.53
2019-01-26T09:09:07.352Z,100068.30
2019-01-26T09:11:35.585Z,100060.06
2019-01-26T09:14:03.816Z,100056.70
2019-01-26T09:16:32.041Z,100065.66
2019-01-26T09:19:00.247Z,100067.28
2019-01-26T09:21:28.491Z,100065.67
2019-01-26T09:23:56.702Z,100069.14
2019-01-26T09:26:24.930Z,100069.67
2019-01-26T09:28:53.120Z,100078.34
2019-01-26T09:31:21.369Z,100069.67
2019-01-26T09:33:49.588Z,100070.72
2019-01-26T09:36:17.819Z,100074.80
2019-01-26T09:38:46.024Z,100077.20
2019-01-26T09:41:14.245Z,100077.20
2019-01-26T09:43:42.466Z,100069.39
2019-01-26T09:46:10.705Z,100064.98
2019-01-26T09:48:38.935Z,100069.98
2019-01-26T09:51:07.137Z,100066.77
2019-01-26T09:53:35.387Z,100063.02
2019-01-26T09:56:03.624Z,100063.69
2019-01-26T09:58:31.843Z,100062.00
2019-01-26T10:01:00.066Z,100066.95
2019-01-26T10:03:28.263Z,100054.76
2019-01-26T10:05:56.495Z,100061.07
2019-01-26T10:08:24.705Z,100050.02
2019-01-26T10:10:52.943Z,100046.77
2019-01-26T10:13:21.176Z,100040.49
2019-01-26T10:15:49.513Z,100038.60
2019-01-26T10:18:17.745Z,100041.16
2019-01-26T10:20:45.986Z,100045.28
2019-01-26T10:23:14.196Z,100040.67
2019-01-26T10:25:48.629Z,100040.34
2019-01-26T10:28:12.554Z,100036.09
2019-01-26T10:30:44.248Z,100037.83
2019-01-26T10:33:12.495Z,100032.23
2019-01-26T10:35:42.366Z,100032.76
2019-01-26T10:38:10.617Z,100028.42
2019-01-26T10:40:55.792Z,100030.37
2019-01-26T10:43:25.667Z,100022.11
2019-01-26T10:45:53.881Z,100023.81
2019-01-26T10:48:22.087Z,100029.91
2019-01-26T10:50:50.432Z,100025.30
2019-01-26T10:53:18.633Z,100017.00
2019-01-26T10:55:46.840Z,100010.73
2019-01-26T10:58:15.073Z,100003.12
2019-01-26T11:00:43.308Z,100002.42
2019-01-26T11:03:11.519Z,99999.34
2019-01-26T11:05:39.740Z,99995.28
2019-01-26T11:08:07.927Z,99998.80
2019-01-26T11:10:36.139Z,100003.28
2019-01-26T11:13:04.343Z,100010.95
2019-01-26T11:15:32.578Z,99995.97
2019-01-26T11:18:00.877Z,99997.17
2019-01-26T11:20:29.469Z,99989.02
2019-01-26T11:22:57.696Z,99984.77
2019-01-26T11:25:25.901Z,99989.69
2019-01-26T11:27:54.150Z,99985.09
2019-01-26T11:30:23.359Z,99986.78
2019-01-26T11:32:50.881Z,99985.11
2019-01-26T11:35:19.657Z,99981.83
2019-01-26T11:37:47.239Z,99981.33
2019-01-26T11:40:19.169Z,99975.02
2019-01-26T11:42:46.671Z,99979.97
2019-01-26T11:45:16.425Z,99981.33
2019-01-26T11:47:43.923Z,99970.38
2019-01-26T11:50:13.087Z,99973.80
2019-01-26T11:52:40.604Z,99966.69
2019-01-26T11:55:09.759Z,99954.77
2019-01-26T11:57:37.242Z,99950.19
2019-01-26T12:00:16.882Z,99949.44
2019-01-26T12:02:46.028Z,99945.22
2019-01-26T12:05:15.211Z,99938.92
2019-01-26T12:07:42.752Z,99940.69
2019-01-26T12:10:10.277Z,99940.98
2019-01-26T12:12:37.775Z,99942.60
2019-01-26T12:15:06.920Z,99935.62
2019-01-26T12:17:34.463Z,99934.09
2019-01-26T12:20:01.961Z,99935.38
2019-01-26T12:22:29.485Z,99927.09
2019-01-26T12:24:56.988Z,99928.10
2019-01-26T12:27:24.511Z,99925.67
2019-01-26T12:29:52.024Z,99927.44
2019-01-26T12:32:19.516Z,99927.34
2019-01-26T12:34:47.718Z,99918.47
2019-01-26T12:37:15.246Z,99908.78
2019-01-26T12:39:42.772Z,99911.67
2019-01-26T12:42:10.306Z,99902.89
2019-01-26T12:44:37.838Z,99901.56
2019-01-26T12:47:05.327Z,99906.00
2019-01-26T12:49:32.874Z,99890.84
2019-01-26T12:52:00.387Z,99887.95
2019-01-26T12:54:27.918Z,99887.79
2019-01-26T12:56:55.430Z,99887.95
2019-01-26T12:59:22.942Z,99884.73
2019-01-26T13:01:50.441Z,99880.81
2019-01-26T13:04:17.952Z,99884.56
2019-01-26T13:06:45.469Z,99889.02
2019-01-26T13:09:13.005Z,99884.59
2019-01-26T13:11:40.515Z,99882.53
2019-01-26T13:14:08.045Z,99871.00
2019-01-26T13:16:35.685Z,99875.41
2019-01-26T13:19:03.208Z,99872.34
2019-01-26T13:21:30.704Z,99875.26
2019-01-26T13:23:58.257Z,99872.72
2019-01-26T13:26:25.765Z,99871.72
2019-01-26T13:28:53.310Z,99867.30
2019-01-26T13:31:20.840Z,99862.19
2019-01-26T13:33:48.373Z,99852.80
2019-01-26T13:36:15.869Z,99849.75
2019-01-26T13:38:43.510Z,99847.05
2019-01-26T13:41:11.026Z,99851.66
2019-01-26T13:43:38.542Z,99847.74
2019-01-26T13:46:06.079Z,99841.09
2019-01-26T13:48:33.647Z,99831.75
2019-01-26T13:51:01.277Z,99834.81
2019-01-26T13:53:28.825Z,99840.76
2019-01-26T13:55:56.322Z,99843.64
2019-01-26T13:58:23.859Z,99831.57
2019-01-26T14:00:51.362Z,99830.54
2019-01-26T14:03:18.890Z,99827.30
2019-01-26T14:05:46.431Z,99837.00
2019-01-26T14:08:13.913Z,99819.83
2019-01-26T14:10:41.441Z,99826.11
2019-01-26T14:13:08.946Z,99823.58
2019-01-26T14:15:36.457Z,99821.00
2019-01-26T14:18:04.061Z,99814.87
2019-01-26T14:20:31.658Z,99816.59
2019-01-26T14:22:59.195Z,99817.95
2019-01-26T14:25:26.740Z,99816.72
2019-01-26T14:27:54.298Z,99813.00
2019-01-26T14:30:23.449Z,99810.63
2019-01-26T14:32:52.606Z,99807.72
2019-01-26T14:35:20.221Z,99807.06
2019-01-26T14:37:47.729Z,99806.20
2019-01-26T14:40:15.987Z,99801.78
2019-01-26T14:42:43.495Z,99809.08
2019-01-26T14:45:12.403Z,99802.11
2019-01-26T14:47:39.938Z,99806.72
2019-01-26T14:50:08.988Z,99798.88
2019-01-26T14:52:36.524Z,99803.32
2019-01-26T14:55:05.542Z,99793.79
2019-01-26T14:57:33.069Z,99797.53
2019-01-26T15:00:00.560Z,99794.80
2019-01-26T15:02:28.060Z,99786.95
2019-01-26T15:04:55.573Z,99778.09
2019-01-26T15:07:23.062Z,99777.80
2019-01-26T15:09:50.615Z,99770.29
2019-01-26T15:12:18.111Z,99770.11
2019-01-26T15:14:45.623Z,99771.95
2019-01-26T15:17:13.211Z,99770.95
2019-01-26T15:19:40.799Z,99759.02
2019-01-26T15:22:08.321Z,99752.92
2019-01-26T15:24:35.851Z,99750.53
2019-01-26T15:27:03.335Z,99751.57
2019-01-26T15:29:30.867Z,99754.64
2019-01-26T15:31:58.383Z,99744.74
2019-01-26T15:34:25.917Z,99732.65
2019-01-26T15:36:53.442Z,99733.66
2019-01-26T15:39:20.944Z,99729.05
2019-01-26T15:41:48.480Z,99730.76
2019-01-26T15:44:15.975Z,99732.32
2019-01-26T15:46:43.471Z,99720.23
2019-01-26T15:49:10.991Z,99727.20
2019-01-26T15:51:38.489Z,99719.20
2019-01-26T15:54:06.022Z,99711.72
2019-01-26T15:56:33.525Z,99701.47
2019-01-26T15:59:01.051Z,99707.41
2019-01-26T16:01:28.568Z,99713.39
2019-01-26T16:03:56.087Z,99714.92
2019-01-26T16:06:23.632Z,99712.88
2019-01-26T16:08:51.130Z,99712.55
2019-01-26T16:11:18.614Z,99709.81
2019-01-26T16:13:46.137Z,99699.25
2019-01-26T16:16:13.646Z,99696.50
2019-01-26T16:18:41.170Z,99700.77
2019-01-26T16:21:08.688Z,99691.23
2019-01-26T16:23:36.211Z,99691.05
2019-01-26T16:26:03.694Z,99685.96
2019-01-26T16:28:31.206Z,99685.78
2019-01-26T16:30:58.731Z,99679.33
2019-01-26T16:33:26.241Z,99671.48
2019-01-26T16:35:53.730Z,99669.77
2019-01-26T16:38:21.279Z,99666.36
2019-01-26T16:40:48.822Z,99663.31
2019-01-26T16:43:16.326Z,99669.62
2019-01-26T16:45:43.862Z,99672.48
2019-01-26T16:48:11.385Z,99662.80
2019-01-26T16:50:38.886Z,99656.17
2019-01-26T16:53:06.529Z,99657.53
2019-01-26T16:55:34.025Z,99654.45
2019-01-26T16:58:01.526Z,99656.17
2019-01-26T17:00:30.670Z,99651.08
2019-01-26T17:02:58.175Z,99645.95
2019-01-26T17:05:25.982Z,99644.95
2019-01-26T17:07:53.664Z,99644.59
2019-01-26T17:10:21.554Z,99633.38
2019-01-26T17:12:49.062Z,99632.84
2019-01-26T17:15:16.555Z,99627.89
2019-01-26T17:17:44.057Z,99630.97
2019-01-26T17:20:16.189Z,99630.97
2019-01-26T17:22:43.736Z,99627.92
2019-01-26T17:25:11.270Z,99615.63
2019-01-26T17:27:38.760Z,99610.36
2019-01-26T17:30:07.899Z,99608.14
2019-01-26T17:32:35.405Z,99611.87
2019-01-26T17:35:02.922Z,99607.45
2019-01-26T17:37:30.444Z,99605.56
2019-01-26T17:39:57.958Z,99601.66
2019-01-26T17:42:25.515Z,99608.32
2019-01-26T17:44:53.047Z,99600.65
2019-01-26T17:47:20.545Z,99590.61
2019-01-26T17:49:48.158Z,99582.58
2019-01-26T17:52:15.711Z,99581.91
2019-01-26T17:54:43.209Z,99578.03
2019-01-26T17:57:10.709Z,99569.00
2019-01-26T17:59:38.225Z,99573.08
2019-01-26T18:02:05.830Z,99565.92
2019-01-26T18:04:33.329Z,99565.09
2019-01-26T18:07:00.872Z,99559.97
2019-01-26T18:09:28.382Z,99563.88
2019-01-26T18:11:55.901Z,99573.41
2019-01-26T18:14:23.419Z,99567.28
2019-01-26T18:16:50.947Z,99561.83
2019-01-26T18:19:18.476Z,99561.14
2019-01-26T18:21:46.034Z,99554.98
2019-01-26T18:24:13.545Z,99545.30
2019-01-26T18:26:41.072Z,99542.22
2019-01-26T18:29:08.569Z,99537.45
2019-01-26T18:31:36.117Z,99534.86
2019-01-26T18:34:03.604Z,99533.81
2019-01-26T18:36:31.135Z,99526.33
2019-01-26T18:38:58.650Z,99519.88
2019-01-26T18:41:26.171Z,99521.64
2019-01-26T18:43:53.668Z,99517.88
2019-01-26T18:46:21.200Z,99509.88
2019-01-26T18:48:48.712Z,99512.75
2019-01-26T18:51:16.329Z,99505.44
2019-01-26T18:53:43.912Z,99496.08
2019-01-26T18:56:11.401Z,99504.93
2019-01-26T18:58:38.938Z,99492.31
2019-01-26T19:01:06.431Z,99488.95
2019-01-26T19:03:38.570Z,99480.23
2019-01-26T19:06:06.152Z,99474.28
2019-01-26T19:08:33.669Z,99473.78
2019-01-26T19:11:01.187Z,99476.50
2019-01-26T19:13:28.733Z,99470.02
2019-01-26T19:15:56.307Z,99467.11
2019-01-26T19:18:23.807Z,99467.11
2019-01-26T19:20:51.312Z,99465.79
2019-01-26T19:23:18.852Z,99462.70
2019-01-26T19:25:46.353Z,99456.94
2019-01-26T19:28:13.861Z,99457.62
2019-01-26T19:30:41.396Z,99443.02
2019-01-26T19:33:08.893Z,99437.61
2019-01-26T19:35:36.414Z,99436.62
2019-01-26T19:38:03.984Z,99429.84
2019-01-26T19:40:31.521Z,99430.53
2019-01-26T19:42:59.052Z,99429.35
2019-01-26T19:45:26.564Z,99425.77
2019-01-26T19:47:54.111Z,99429.58
2019-01-26T19:50:22.268Z,99423.27
2019-01-26T19:52:49.775Z,99412.88
2019-01-26T19:55:18.068Z,99407.44
2019-01-26T19:57:45.588Z,99405.06
2019-01-26T20:00:13.114Z,99398.95
2019-01-26T20:02:40.606Z,99395.91
2019-01-26T20:05:09.894Z,99387.56
2019-01-26T20:07:37.387Z,99378.22
2019-01-26T20:10:06.099Z,99381.30
2019-01-26T20:12:33.638Z,99370.23
2019-01-26T20:15:01.194Z,99363.94
2019-01-26T20:17:28.692Z,99363.25
2019-01-26T20:19:56.194Z,99353.73
2019-01-26T20:22:23.705Z,99348.28
2019-01-26T20:24:51.204Z,99345.10
2019-01-26T20:27:18.730Z,99333.03
2019-01-26T20:29:46.250Z,99334.04
2019-01-26T20:32:13.782Z,99324.73
2019-01-26T20:34:41.276Z,99318.58
2019-01-26T20:37:08.800Z,99319.25
2019-01-26T20:39:36.316Z,99319.44
2019-01-26T20:42:03.873Z,99318.42
2019-01-26T20:44:31.376Z,99316.03
2019-01-26T20:46:58.906Z,99316.39
2019-01-26T20:49:26.404Z,99306.19
2019-01-26T20:51:53.912Z,99294.98
2019-01-26T20:54:21.444Z,99284.42
2019-01-26T20:56:48.942Z,99288.68
2019-01-26T20:59:16.459Z,99277.98
2019-01-26T21:01:43.998Z,99272.86
2019-01-26T21:04:11.491Z,99270.99
2019-01-26T21:06:38.991Z,99265.91
2019-01-26T21:09:06.874Z,99251.98
2019-01-26T21:11:34.373Z,99248.59
2019-01-26T21:14:01.903Z,99239.57
2019-01-26T21:16:29.463Z,99232.77
2019-01-26T21:18:57.005Z,99238.56
2019-01-26T21:21:24.930Z,99229.05
2019-01-26T21:23:52.426Z,99228.05
2019-01-26T21:26:19.995Z,99227.33
2019-01-26T21:28:47.491Z,99224.60
2019-01-26T21:31:14.998Z,99212.54
2019-01-26T21:33:42.534Z,99204.91
2019-01-26T21:36:10.047Z,99206.96
2019-01-26T21:38:37.580Z,99198.80
2019-01-26T21:41:05.114Z,99198.13
2019-01-26T21:43:32.620Z,99198.13
2019-01-26T21:46:00.094Z,99186.92
2019-01-26T21:48:27.624Z,99188.47
2019-01-26T21:50:55.114Z,99193.05
2019-01-26T21:53:22.644Z,99181.12
2019-01-26T21:55:50.174Z,99179.61
2019-01-26T21:58:17.697Z,99174.19
2019-01-26T22:00:45.200Z,99167.20
2019-01-26T22:03:12.726Z,99165.52
2019-01-26T22:05:40.228Z,99163.81
2019-01-26T22:08:07.757Z,99146.84
2019-01-26T22:10:35.260Z,99150.74
2019-01-26T22:13:02.811Z,99141.22
2019-01-26T22:15:30.339Z,99146.66
2019-01-26T22:17:57.871Z,99139.67
2019-01-26T22:20:28.405Z,99139.51
2019-01-26T22:22:56.245Z,99128.12
2019-01-26T22:25:23.782Z,99130.54
2019-01-26T22:27:51.658Z,99121.83
2019-01-26T22:30:20.269Z,99122.20
2019-01-26T22:32:47.763Z,99118.97
2019-01-26T22:35:15.287Z,99117.42
2019-01-26T22:37:42.775Z,99120.33
2019-01-26T22:40:27.070Z,99104.51
2019-01-26T22:42:54.575Z,99087.68
2019-01-26T22:45:22.274Z,99077.67
2019-01-26T22:47:49.799Z,99079.03
2019-01-26T22:50:18.684Z,99066.98
2019-01-26T22:52:46.200Z,99068.51
2019-01-26T22:55:14.770Z,99057.95
2019-01-26T22:57:42.280Z,99055.41
2019-01-26T23:00:11.406Z,99055.09
2019-01-26T23:02:38.945Z,99049.17
2019-01-26T23:05:20.322Z,99043.03
2019-01-26T23:07:47.845Z,99044.20
2019-01-26T23:10:23.117Z,99048.98
2019-01-26T23:12:58.223Z,99042.50
2019-01-26T23:15:43.769Z,99040.95
2019-01-26T23:18:27.899Z,99037.43
2019-01-26T23:21:03.174Z,99024.18
2019-01-26T23:23:35.001Z,99023.64
2019-01-26T23:26:09.830Z,99012.63
2019-01-26T23:28:50.957Z,99009.41
2019-01-26T23:31:18.659Z,99009.24
2019-01-26T23:33:46.751Z,99000.39
2019-01-26T23:36:14.643Z,99000.70
2019-01-26T23:38:42.135Z,98990.18
2019-01-26T23:41:09.660Z,98984.73
2019-01-26T23:43:37.181Z,98984.07
2019-01-26T23:46:04.685Z,98970.16
2019-01-26T23:48:32.194Z,98954.15
2019-01-26T23:50:59.713Z,98954.15
2019-01-26T23:53:27.227Z,98944.13
2019-01-26T23:55:54.739Z,98939.88
2019-01-26T23:58:22.249Z,98926.47
